createdAt,value
2019-01-23T07:42:43.716Z,59.83
2019-01-23T07:45:31.439Z,73.20
2019-01-23T07:48:18.827Z,70.07
2019-01-23T07:51:06.712Z,64.10
2019-01-23T07:53:54.723Z,72.57
2019-01-23T07:56:42.663Z,66.70
2019-01-23T07:59:30.168Z,64.53
2019-01-23T08:02:18.093Z,65.83
2019-01-23T08:05:09.185Z,64.47
2019-01-23T08:07:57.279Z,65.03
2019-01-23T08:10:45.172Z,63.90
2019-01-23T08:13:33.025Z,65.53
2019-01-23T08:16:20.650Z,62.60
2019-01-23T08:19:08.328Z,66.30
2019-01-23T08:21:56.301Z,65.90
2019-01-23T08:24:44.186Z,62.97
2019-01-23T08:27:32.317Z,63.07
2019-01-23T08:30:21.613Z,66.67
2019-01-23T08:33:09.501Z,59.40
2019-01-23T08:35:57.001Z,69.30
2019-01-23T08:38:45.006Z,63.47
2019-01-23T08:41:32.816Z,61.43
2019-01-23T08:44:20.609Z,63.07
2019-01-23T08:47:08.629Z,61.07
2019-01-23T08:49:56.189Z,56.97
2019-01-23T08:52:43.856Z,66.23
2019-01-23T08:55:31.735Z,65.80
2019-01-23T08:58:19.643Z,62.20
2019-01-23T09:01:07.363Z,58.00
2019-01-23T09:03:55.268Z,61.93
2019-01-23T09:06:43.196Z,60.47
2019-01-23T09:09:31.200Z,63.37
2019-01-23T09:12:19.273Z,65.77
2019-01-23T09:15:10.557Z,70.30
2019-01-23T09:17:58.477Z,63.50
2019-01-23T09:20:46.105Z,61.90
2019-01-23T09:23:33.685Z,56.90
2019-01-23T09:26:21.946Z,66.63
2019-01-23T09:29:09.621Z,60.50
2019-01-23T09:32:09.631Z,59.80
2019-01-23T09:35:06.525Z,57.67
2019-01-23T09:38:00.960Z,62.93
2019-01-23T09:41:00.805Z,57.70
2019-01-23T09:44:07.019Z,55.37
2019-01-23T09:47:15.692Z,63.77
2019-01-23T09:50:19.080Z,57.40
2019-01-23T09:53:18.324Z,55.33
2019-01-23T09:56:06.209Z,55.47
2019-01-23T09:58:54.253Z,61.30
2019-01-23T10:01:41.882Z,58.47
2019-01-23T10:04:29.684Z,57.53
2019-01-23T10:07:17.644Z,57.17
2019-01-23T10:10:08.762Z,57.97
2019-01-23T10:12:56.503Z,61.60
2019-01-23T10:15:46.670Z,64.10
2019-01-23T10:18:34.189Z,58.30
2019-01-23T10:21:22.018Z,58.33
2019-01-23T10:24:10.040Z,63.93
2019-01-23T10:26:57.607Z,55.27
2019-01-23T10:29:45.401Z,62.03
2019-01-23T10:32:33.295Z,61.97
2019-01-23T10:35:21.120Z,57.03
2019-01-23T10:38:08.653Z,57.63
2019-01-23T10:40:56.584Z,60.63
2019-01-23T10:43:44.664Z,65.93
2019-01-23T10:46:32.655Z,55.53
2019-01-23T10:49:20.613Z,59.87
2019-01-23T10:52:08.520Z,56.47
2019-01-23T10:54:56.481Z,57.57
2019-01-23T10:57:44.280Z,57.77
2019-01-23T11:00:31.744Z,58.30
2019-01-23T11:03:19.661Z,54.07
2019-01-23T11:06:07.302Z,53.73
2019-01-23T11:08:55.245Z,54.93
2019-01-23T11:11:43.136Z,57.07
2019-01-23T11:14:30.974Z,55.70
2019-01-23T11:17:18.824Z,52.90
2019-01-23T11:20:09.533Z,55.07
2019-01-23T11:22:57.686Z,54.27
2019-01-23T11:25:45.247Z,60.00
2019-01-23T11:28:33.194Z,56.57
2019-01-23T11:31:21.405Z,54.23
2019-01-23T11:34:09.186Z,55.60
2019-01-23T11:36:56.664Z,57.27
2019-01-23T11:39:44.364Z,60.43
2019-01-23T11:42:32.421Z,62.87
2019-01-23T11:45:20.356Z,55.80
2019-01-23T11:48:08.276Z,55.43
2019-01-23T11:50:55.830Z,58.77
2019-01-23T11:53:43.637Z,62.50
2019-01-23T11:56:31.336Z,55.63
2019-01-23T11:59:18.952Z,62.57
2019-01-23T12:02:06.841Z,61.83
2019-01-23T12:04:54.704Z,60.77
2019-01-23T12:07:42.761Z,60.80
2019-01-23T12:10:30.241Z,68.83
2019-01-23T12:13:17.820Z,63.00
2019-01-23T12:16:05.688Z,66.43
2019-01-23T12:18:53.428Z,63.87
2019-01-23T12:21:41.093Z,70.73
2019-01-23T12:24:28.879Z,62.97
2019-01-23T12:27:17.085Z,65.37
2019-01-23T12:30:11.057Z,64.10
2019-01-23T12:32:58.837Z,65.33
2019-01-23T12:35:46.735Z,64.20
2019-01-23T12:38:34.324Z,53.63
2019-01-23T12:41:22.087Z,61.03
2019-01-23T12:44:10.214Z,57.17
2019-01-23T12:46:57.856Z,57.63
2019-01-23T12:49:46.440Z,58.00
2019-01-23T12:52:34.353Z,56.50
2019-01-23T12:55:22.293Z,58.23
2019-01-23T12:58:10.197Z,56.87
2019-01-23T13:00:57.913Z,52.43
2019-01-23T13:03:45.556Z,54.07
2019-01-23T13:06:33.472Z,49.30
2019-01-23T13:09:21.264Z,48.60
2019-01-23T13:12:09.117Z,48.13
2019-01-23T13:14:56.676Z,53.20
2019-01-23T13:17:44.329Z,48.70
2019-01-23T13:20:31.861Z,51.37
2019-01-23T13:23:20.086Z,56.17
2019-01-23T13:26:07.872Z,54.30
2019-01-23T13:28:55.538Z,57.33
2019-01-23T13:31:49.114Z,52.73
2019-01-23T13:34:32.991Z,51.20
2019-01-23T13:37:20.736Z,57.30
2019-01-23T13:40:14.822Z,55.37
2019-01-23T13:43:02.383Z,58.90
2019-01-23T13:45:50.024Z,55.13
2019-01-23T13:48:38.034Z,59.77
2019-01-23T13:51:26.093Z,51.70
2019-01-23T13:54:13.725Z,55.03
2019-01-23T13:57:02.679Z,57.87
2019-01-23T13:59:50.457Z,56.57
2019-01-23T14:02:38.294Z,56.33
2019-01-23T14:05:26.028Z,55.37
2019-01-23T14:08:14.005Z,54.70
2019-01-23T14:11:01.651Z,56.07
2019-01-23T14:13:49.881Z,53.10
2019-01-23T14:16:37.626Z,56.23
2019-01-23T14:19:25.576Z,53.07
2019-01-23T14:22:13.448Z,52.27
2019-01-23T14:25:01.584Z,54.93
2019-01-23T14:27:49.649Z,52.17
2019-01-23T14:30:42.755Z,51.67
2019-01-23T14:33:30.512Z,55.20
2019-01-23T14:36:18.089Z,60.73
2019-01-23T14:39:07.181Z,58.97
2019-01-23T14:41:54.959Z,56.83
2019-01-23T14:44:42.794Z,59.43
2019-01-23T14:47:30.285Z,58.63
2019-01-23T14:50:20.089Z,53.83
2019-01-23T14:53:07.768Z,54.77
2019-01-23T14:55:55.532Z,54.93
2019-01-23T14:58:43.200Z,64.60
2019-01-23T15:01:31.213Z,57.60
2019-01-23T15:04:18.828Z,58.00
2019-01-23T15:07:06.784Z,62.00
2019-01-23T15:09:54.336Z,59.97
2019-01-23T15:12:42.472Z,62.20
2019-01-23T15:15:30.271Z,58.77
2019-01-23T15:18:17.899Z,54.60
2019-01-23T15:21:05.901Z,60.63
2019-01-23T15:23:53.805Z,64.20
2019-01-23T15:26:41.781Z,58.17
2019-01-23T15:29:29.665Z,59.40
2019-01-23T15:32:17.608Z,62.60
2019-01-23T15:35:08.431Z,62.10
2019-01-23T15:37:56.263Z,61.40
2019-01-23T15:40:43.860Z,62.53
2019-01-23T15:43:31.692Z,64.83
2019-01-23T15:46:19.592Z,68.40
2019-01-23T15:49:07.672Z,61.47
2019-01-23T15:51:55.505Z,61.97
2019-01-23T15:54:43.156Z,61.53
2019-01-23T15:57:31.028Z,67.40
2019-01-23T16:00:27.182Z,69.67
2019-01-23T16:03:14.940Z,67.33
2019-01-23T16:06:02.992Z,61.13
2019-01-23T16:08:50.630Z,66.00
2019-01-23T16:11:39.965Z,65.53
2019-01-23T16:14:27.952Z,61.77
2019-01-23T16:17:16.213Z,63.97
2019-01-23T16:20:07.080Z,72.67
2019-01-23T16:22:54.898Z,66.93
2019-01-23T16:25:42.833Z,65.23
2019-01-23T16:28:30.641Z,67.57
2019-01-23T16:31:18.712Z,71.83
2019-01-23T16:34:06.637Z,71.27
2019-01-23T16:36:54.445Z,79.63
2019-01-23T16:39:41.980Z,70.37
2019-01-23T16:42:29.835Z,79.97
2019-01-23T16:45:21.493Z,76.93
2019-01-23T16:48:09.345Z,74.57
2019-01-23T16:50:57.249Z,79.43
2019-01-23T16:53:45.244Z,78.83
2019-01-23T16:56:33.252Z,74.20
2019-01-23T16:59:21.084Z,79.53
2019-01-23T17:02:08.871Z,78.07
2019-01-23T17:04:56.685Z,78.83
2019-01-23T17:07:44.464Z,80.27
2019-01-23T17:10:32.138Z,77.33
2019-01-23T17:13:19.717Z,83.20
2019-01-23T17:16:07.688Z,78.60
2019-01-23T17:18:55.261Z,81.83
2019-01-23T17:21:43.147Z,86.47
2019-01-23T17:24:35.104Z,77.77
2019-01-23T17:27:23.037Z,85.47
2019-01-23T17:30:14.125Z,83.90
2019-01-23T17:33:02.477Z,84.10
2019-01-23T17:35:50.408Z,77.87
2019-01-23T17:38:38.283Z,84.50
2019-01-23T17:41:26.136Z,83.63
2019-01-23T17:44:13.944Z,84.93
2019-01-23T17:47:01.804Z,83.73
2019-01-23T17:49:50.151Z,79.73
2019-01-23T17:52:37.785Z,77.43
2019-01-23T17:55:33.356Z,77.50
2019-01-23T17:58:21.276Z,77.57
2019-01-23T18:01:11.083Z,77.53
2019-01-23T18:03:58.996Z,74.33
2019-01-23T18:06:46.767Z,74.70
2019-01-23T18:09:34.385Z,81.97
2019-01-23T18:12:22.493Z,77.63
2019-01-23T18:15:25.316Z,81.37
2019-01-23T18:18:13.409Z,81.17
2019-01-23T18:21:01.659Z,79.40
2019-01-23T18:23:49.815Z,84.77
2019-01-23T18:26:37.766Z,73.43
2019-01-23T18:29:25.688Z,79.83
2019-01-23T18:32:13.357Z,76.97
2019-01-23T18:35:23.915Z,70.07
2019-01-23T18:38:26.679Z,77.40
2019-01-23T18:41:34.124Z,76.13
2019-01-23T18:44:40.147Z,71.27
2019-01-23T18:47:54.170Z,68.63
2019-01-23T18:50:54.024Z,70.83
2019-01-23T18:53:42.041Z,75.73
2019-01-23T18:56:29.793Z,77.20
2019-01-23T18:59:17.497Z,77.87
2019-01-23T19:02:05.320Z,68.80
2019-01-23T19:04:52.876Z,69.67
2019-01-23T19:07:40.464Z,75.27
2019-01-23T19:10:27.871Z,78.23
2019-01-23T19:13:15.706Z,95.03
2019-01-23T19:16:03.558Z,81.23
2019-01-23T19:18:51.499Z,76.53
2019-01-23T19:21:39.303Z,77.50
2019-01-23T19:24:26.897Z,82.67
2019-01-23T19:27:14.644Z,79.07
2019-01-23T19:30:08.909Z,77.40
2019-01-23T19:32:51.810Z,90.07
2019-01-23T19:35:39.857Z,84.50
2019-01-23T19:38:27.949Z,80.40
2019-01-23T19:41:20.335Z,87.30
2019-01-23T19:44:07.142Z,86.80
2019-01-23T19:46:54.832Z,81.97
2019-01-23T19:49:42.535Z,85.17
2019-01-23T19:52:30.418Z,83.63
2019-01-23T19:55:18.437Z,87.23
2019-01-23T19:58:06.662Z,78.60
2019-01-23T20:00:54.452Z,80.27
2019-01-23T20:03:42.048Z,82.57
2019-01-23T20:06:29.666Z,78.80
2019-01-23T20:09:17.797Z,79.47
2019-01-23T20:12:05.613Z,74.20
2019-01-23T20:14:53.440Z,89.07
2019-01-23T20:17:41.555Z,84.87
2019-01-23T20:20:29.744Z,80.93
2019-01-23T20:23:24.879Z,79.63
2019-01-23T20:26:12.678Z,79.97
2019-01-23T20:29:00.654Z,80.80
2019-01-23T20:31:48.252Z,81.93
2019-01-23T20:34:36.241Z,85.90
2019-01-23T20:37:24.188Z,83.60
2019-01-23T20:40:13.452Z,93.50
2019-01-23T20:43:01.372Z,76.43
2019-01-23T20:45:48.825Z,88.57
2019-01-23T20:48:36.609Z,86.30
2019-01-23T20:51:24.348Z,80.03
2019-01-23T20:54:11.954Z,82.93
2019-01-23T20:57:02.879Z,77.80
2019-01-23T20:59:50.800Z,78.40
2019-01-23T21:02:38.844Z,80.47
2019-01-23T21:05:26.629Z,83.60
2019-01-23T21:08:14.305Z,81.67
2019-01-23T21:11:02.240Z,80.50
2019-01-23T21:13:49.858Z,72.10
2019-01-23T21:16:37.764Z,74.97
2019-01-23T21:19:25.540Z,79.57
2019-01-23T21:22:13.327Z,82.57
2019-01-23T21:25:00.954Z,79.03
2019-01-23T21:27:48.735Z,81.23
2019-01-23T21:30:39.973Z,81.00
2019-01-23T21:34:02.663Z,87.50
2019-01-23T21:36:45.772Z,76.13
2019-01-23T21:39:33.177Z,76.50
2019-01-23T21:42:20.863Z,75.13
2019-01-23T21:45:11.550Z,73.73
2019-01-23T21:47:59.228Z,72.70
2019-01-23T21:50:47.183Z,80.37
2019-01-23T21:53:34.909Z,79.10
2019-01-23T21:56:22.609Z,65.93
2019-01-23T21:59:10.343Z,71.83
2019-01-23T22:01:57.944Z,79.93
2019-01-23T22:04:45.513Z,73.47
2019-01-23T22:07:36.211Z,72.50
2019-01-23T22:10:23.796Z,73.63
2019-01-23T22:13:11.688Z,71.20
2019-01-23T22:15:59.289Z,80.73
2019-01-23T22:18:47.161Z,77.73
2019-01-23T22:21:34.955Z,80.27
2019-01-23T22:24:22.516Z,73.17
2019-01-23T22:27:10.140Z,73.70
2019-01-23T22:29:58.092Z,74.07
2019-01-23T22:32:46.052Z,78.97
2019-01-23T22:35:33.752Z,74.90
2019-01-23T22:38:21.132Z,78.13
2019-01-23T22:41:08.961Z,77.57
2019-01-23T22:43:56.901Z,79.73
2019-01-23T22:46:44.588Z,80.83
2019-01-23T22:53:11.524Z,76.77
2019-01-23T23:05:41.473Z,85.00
2019-01-23T23:33:37.137Z,77.60
2019-01-23T23:50:54.284Z,74.97
